Time;durP1;ratioP1;P1;durP2;ratioP2;P2;SDS_P1;SDS_P2;PMS_P1;PMS_P2;Temp;Humidity;BMP_temperature;BMP_pressure;BME280_temperature;BME280_humidity;BME280_pressure;Samples;Min_cycle;Max_cycle;Signal;HPM_P1;HPM_P2
2021/11/09 00:01:10;;;;;;;3.50;2.90;;;;;;;;;;5049878;28;20542;-57
2021/11/09 00:03:50;;;;;;;7.20;3.60;;;10.80;1.00;;;;;;5050307;28;20451;-59
2021/11/09 00:06:24;;;;;;;5.13;3.10;;;;;;;;;;5049690;28;20416;-57
2021/11/09 00:08:56;;;;;;;7.83;2.87;;;10.80;1.00;;;;;;5049899;28;20533;-58
2021/11/09 00:11:24;;;;;;;4.47;3.23;;;10.90;1.00;;;;;;5049826;28;20425;-58
2021/11/09 00:13:50;;;;;;;6.97;3.83;;;10.90;1.00;;;;;;5049986;28;20424;-60
2021/11/09 00:16:16;;;;;;;5.87;3.40;;;;;;;;;;5050485;28;20466;-57
2021/11/09 00:18:42;;;;;;;7.00;3.73;;;;;;;;;;5049639;28;20424;-57
2021/11/09 00:21:08;;;;;;;7.00;3.37;;;10.80;1.00;;;;;;5049992;28;20601;-57
2021/11/09 00:23:34;;;;;;;3.87;3.03;;;;;;;;;;5050015;28;20938;-59
2021/11/09 00:26:00;;;;;;;5.10;2.90;;;;;;;;;;5049172;28;20475;-58
2021/11/09 00:28:26;;;;;;;6.13;3.60;;;;;;;;;;5049967;28;20941;-58
2021/11/09 00:30:52;;;;;;;4.90;3.50;;;;;;;;;;5049872;28;20435;-59
2021/11/09 00:33:20;;;;;;;4.03;3.17;;;10.70;1.00;;;;;;5048817;28;20542;-59
2021/11/09 00:35:49;;;;;;;5.97;3.07;;;10.80;1.00;;;;;;5049274;28;20456;-57
2021/11/09 00:38:15;;;;;;;7.87;3.00;;;;;;;;;;5049410;28;20450;-58
2021/11/09 00:40:43;;;;;;;4.30;3.50;;;10.70;1.00;;;;;;5049953;28;20944;-59
2021/11/09 00:43:12;;;;;;;5.30;3.67;;;10.60;1.00;;;;;;5049830;28;20458;-57
2021/11/09 00:45:38;;;;;;;3.77;3.37;;;10.80;1.00;;;;;;5049109;28;20981;-57
2021/11/09 00:48:04;;;;;;;9.40;3.97;;;10.90;1.00;;;;;;5049247;28;21005;-57
2021/11/09 00:50:31;;;;;;;6.20;3.47;;;10.80;1.00;;;;;;5049494;28;20458;-60
2021/11/09 00:52:57;;;;;;;4.90;3.30;;;;;;;;;;5049637;28;20781;-57
2021/11/09 00:55:23;;;;;;;6.77;3.43;;;10.50;1.00;;;;;;5048887;28;20502;-57
2021/11/09 00:57:49;;;;;;;4.90;3.00;;;10.90;1.00;;;;;;5049023;28;20917;-58
2021/11/09 01:00:19;;;;;;;4.20;3.47;;;10.50;1.00;;;;;;5049062;28;20931;-58
2021/11/09 01:02:47;;;;;;;8.63;3.90;;;10.90;1.00;;;;;;5049522;28;20481;-58
2021/11/09 01:05:15;;;;;;;8.20;3.60;;;10.90;1.00;;;;;;5049247;28;20517;-58
2021/11/09 01:07:41;;;;;;;4.50;2.93;;;;;;;;;;5049501;28;20962;-58
2021/11/09 01:10:08;;;;;;;5.73;3.57;;;10.70;1.00;;;;;;5047996;28;20447;-58
2021/11/09 01:12:34;;;;;;;8.60;3.97;;;10.90;1.00;;;;;;5049011;28;20443;-58
2021/11/09 01:15:00;;;;;;;5.07;3.10;;;10.60;1.00;;;;;;5049089;28;20445;-58
2021/11/09 01:17:27;;;;;;;6.07;3.30;;;10.70;1.00;;;;;;5049364;28;20462;-58
2021/11/09 01:19:53;;;;;;;5.23;3.87;;;10.60;1.00;;;;;;5049147;28;20827;-58
2021/11/09 01:22:19;;;;;;;6.17;3.57;;;10.80;1.00;;;;;;5048237;28;20457;-58
2021/11/09 01:24:45;;;;;;;3.50;3.03;;;10.60;1.00;;;;;;5049132;28;20550;-59
2021/11/09 01:27:10;;;;;;;8.03;3.40;;;10.60;1.00;;;;;;5047720;28;20271;-58
2021/11/09 01:29:36;;;;;;;8.73;4.07;;;10.80;1.00;;;;;;5049322;28;20509;-57
2021/11/09 01:32:02;;;;;;;5.27;3.80;;;10.70;1.00;;;;;;5048074;28;20188;-57
2021/11/09 01:34:28;;;;;;;6.10;3.03;;;;;;;;;;5049010;28;20449;-60
2021/11/09 01:36:55;;;;;;;3.23;2.90;;;;;;;;;;5049337;28;20489;-59
2021/11/09 01:39:20;;;;;;;5.43;3.57;;;11.00;1.00;;;;;;5049072;28;20741;-58
2021/11/09 01:41:46;;;;;;;6.87;3.40;;;;;;;;;;5049048;28;20425;-58
2021/11/09 01:44:12;;;;;;;7.83;3.40;;;10.90;1.00;;;;;;5049213;28;20181;-59
2021/11/09 01:46:38;;;;;;;5.13;3.03;;;11.10;1.00;;;;;;5049030;28;20464;-59
2021/11/09 01:49:05;;;;;;;6.27;2.83;;;10.80;1.00;;;;;;5048765;28;20199;-58
2021/11/09 01:51:31;;;;;;;7.70;3.30;;;10.80;1.00;;;;;;5048977;28;20421;-58
2021/11/09 01:53:58;;;;;;;4.30;3.20;;;10.80;1.00;;;;;;5050858;28;20432;-58
2021/11/09 01:56:27;;;;;;;3.30;2.80;;;10.80;1.00;;;;;;5054221;28;20661;-58
2021/11/09 01:58:55;;;;;;;9.97;4.37;;;10.80;1.00;;;;;;5052346;28;20979;-58
2021/11/09 02:01:22;;;;;;;7.90;3.57;;;10.90;1.00;;;;;;5052527;28;20439;-58
2021/11/09 02:03:50;;;;;;;4.97;4.03;;;10.70;1.00;;;;;;5051861;28;20496;-58
2021/11/09 02:06:17;;;;;;;5.87;2.57;;;10.60;1.00;;;;;;5052554;28;20425;-58
2021/11/09 02:08:43;;;;;;;3.60;2.90;;;;;;;;;;5050925;28;20769;-57
2021/11/09 02:11:10;;;;;;;3.70;3.10;;;10.70;1.00;;;;;;5068282;28;20446;-57
2021/11/09 02:13:36;;;;;;;5.33;3.40;;;10.70;1.00;;;;;;5064163;28;21011;-58
2021/11/09 02:16:02;;;;;;;7.10;3.53;;;10.70;1.00;;;;;;5052256;28;20459;-58
2021/11/09 02:18:28;;;;;;;4.20;3.20;;;10.50;1.00;;;;;;5052344;28;20529;-57
2021/11/09 02:20:54;;;;;;;4.70;3.30;;;;;;;;;;5052153;28;20452;-57
2021/11/09 02:23:20;;;;;;;6.23;3.37;;;10.60;1.00;;;;;;5052465;28;20435;-57
2021/11/09 02:25:46;;;;;;;4.07;3.60;;;;;;;;;;5051866;28;20433;-58
2021/11/09 02:28:12;;;;;;;5.73;3.90;;;10.50;1.00;;;;;;5051961;28;20418;-57
2021/11/09 02:30:38;;;;;;;6.03;4.03;;;;;;;;;;5052529;28;20485;-57
2021/11/09 02:33:04;;;;;;;6.60;3.60;;;;;;;;;;5051221;28;20669;-57
2021/11/09 02:35:29;;;;;;;5.27;3.80;;;10.40;1.00;;;;;;5052058;28;20481;-57
2021/11/09 02:37:57;;;;;;;5.67;3.60;;;10.40;1.00;;;;;;5051524;28;20425;-58
2021/11/09 02:40:24;;;;;;;6.60;3.90;;;10.40;1.00;;;;;;5050729;28;20239;-57
2021/11/09 02:42:52;;;;;;;6.50;4.00;;;10.30;1.00;;;;;;5051304;28;20422;-57
2021/11/09 02:45:26;;;;;;;7.57;4.40;;;10.30;1.00;;;;;;5046347;28;20470;-57
2021/11/09 02:47:59;;;;;;;4.53;3.60;;;10.40;1.00;;;;;;5051286;28;20504;-58
2021/11/09 02:50:30;;;;;;;6.30;4.00;;;;;;;;;;5051722;28;20446;-57
2021/11/09 02:53:00;;;;;;;5.47;3.97;;;10.30;1.00;;;;;;5051339;28;20959;-58
2021/11/09 02:55:32;;;;;;;8.43;4.60;;;;;;;;;;5067380;28;20438;-57
2021/11/09 02:58:26;;;;;;;4.40;3.30;;;;;;;;;;5059149;28;20788;-59
2021/11/09 03:03:27;;;;;;;9.33;3.60;;;;;;;;;;5050960;28;20460;-58
2021/11/09 03:08:43;;;;;;;4.03;3.43;;;10.50;1.00;;;;;;5051303;28;20848;-58
2021/11/09 03:11:09;;;;;;;8.30;4.40;;;10.60;1.00;;;;;;5051337;28;20443;-58
2021/11/09 03:13:37;;;;;;;4.50;3.20;;;;;;;;;;5051206;28;20473;-58
2021/11/09 03:16:08;;;;;;;4.33;3.57;;;10.20;1.00;;;;;;5051070;28;20462;-58
2021/11/09 03:18:42;;;;;;;5.60;3.50;;;10.30;1.00;;;;;;5049943;28;20446;-57
2021/11/09 03:40:12;;;;;;;7.87;4.00;;;;;;;;;;5050984;28;20457;-58
2021/11/09 03:45:29;;;;;;;7.73;3.70;;;10.30;1.00;;;;;;5050052;28;20469;-58
2021/11/09 03:48:02;;;;;;;5.47;4.20;;;10.30;1.00;;;;;;5050786;28;20427;-58
2021/11/09 03:50:29;;;;;;;6.63;4.27;;;;;;;;;;5050808;28;20439;-58
2021/11/09 03:53:01;;;;;;;7.47;3.43;;;10.30;1.00;;;;;;5050471;28;20447;-57
2021/11/09 03:58:15;;;;;;;4.33;3.60;;;10.10;1.00;;;;;;5049940;28;20870;-58
2021/11/09 04:00:51;;;;;;;7.00;3.93;;;;;;;;;;5049984;28;20476;-57
2021/11/09 04:03:40;;;;;;;5.00;3.50;;;10.20;1.00;;;;;;5050159;28;20440;-57
2021/11/09 04:07:02;;;;;;;8.43;4.00;;;10.20;1.00;;;;;;5050568;28;20470;-57
2021/11/09 04:11:31;;;;;;;7.60;3.57;;;10.20;1.00;;;;;;5050544;28;20414;-57
2021/11/09 04:16:55;;;;;;;8.20;3.80;;;10.20;1.00;;;;;;5049985;28;20997;-57
2021/11/09 04:27:08;;;;;;;5.67;4.17;;;;;;;;;;5050395;28;20450;-57
2021/11/09 04:30:00;;;;;;;5.57;4.10;;;;;;;;;;5049770;28;20471;-57
2021/11/09 04:33:12;;;;;;;5.50;4.20;;;9.90;1.00;;;;;;5049310;28;20771;-57
2021/11/09 05:01:10;;;;;;;6.97;3.83;;;;;;;;;;5048702;28;20459;-57
2021/11/09 05:02:12;;;;;;;5.70;4.13;;;9.80;1.00;;;;;;5048721;28;20780;-57
2021/11/09 05:10:11;;;;;;;6.67;4.20;;;;;;;;;;5049209;28;20473;-61
2021/11/09 05:12:37;;;;;;;7.97;4.17;;;10.00;1.00;;;;;;5049881;28;20974;-62
2021/11/09 05:15:03;;;;;;;7.23;3.23;;;10.20;1.00;;;;;;5057903;28;20420;-63
2021/11/09 05:17:29;;;;;;;9.30;4.30;;;;;;;;;;5049982;28;20287;-62
2021/11/09 05:19:55;;;;;;;7.07;4.70;;;;;;;;;;5055499;28;20437;-61
2021/11/09 05:22:21;;;;;;;6.73;4.90;;;;;;;;;;5062422;28;20451;-59
2021/11/09 05:24:47;;;;;;;8.30;4.37;;;;;;;;;;5049778;28;20413;-58
2021/11/09 05:27:15;;;;;;;5.27;4.00;;;;;;;;;;5049444;28;20418;-59
2021/11/09 05:29:43;;;;;;;7.43;4.27;;;10.00;1.00;;;;;;5057938;28;20954;-59
2021/11/09 05:32:09;;;;;;;7.40;4.00;;;;;;;;;;5061377;28;20486;-59
2021/11/09 05:34:35;;;;;;;5.33;3.87;;;9.90;1.00;;;;;;5053303;28;20417;-58
2021/11/09 05:37:02;;;;;;;6.40;4.40;;;;;;;;;;5053046;28;20446;-59
2021/11/09 05:39:43;;;;;;;6.43;4.40;;;;;;;;;;5054798;28;20619;-58
2021/11/09 05:42:09;;;;;;;11.50;5.07;;;10.10;1.00;;;;;;5053043;28;20417;-59
2021/11/09 05:44:35;;;;;;;5.20;4.70;;;;;;;;;;5051727;28;20446;-59
2021/11/09 05:47:01;;;;;;;5.63;4.73;;;;;;;;;;5052483;28;20290;-58
2021/11/09 05:49:27;;;;;;;9.43;5.07;;;;;;;;;;5052466;28;20937;-59
2021/11/09 05:51:53;;;;;;;10.23;4.50;;;;;;;;;;5053086;28;20504;-60
2021/11/09 05:54:19;;;;;;;6.00;4.57;;;;;;;;;;5052703;28;20492;-59
2021/11/09 05:56:45;;;;;;;5.07;4.10;;;;;;;;;;5052641;28;20466;-59
2021/11/09 05:59:11;;;;;;;9.73;4.80;;;;;;;;;;5051968;28;20493;-60
2021/11/09 06:01:37;;;;;;;7.40;4.53;;;;;;;;;;5053283;28;20517;-58
2021/11/09 06:04:03;;;;;;;7.87;4.93;;;;;;;;;;5052396;28;20848;-59
2021/11/09 06:06:29;;;;;;;7.60;5.33;;;;;;;;;;5052066;28;20418;-59
2021/11/09 06:08:55;;;;;;;10.47;4.77;;;;;;;;;;5052371;28;20795;-59
2021/11/09 06:11:21;;;;;;;6.70;4.60;;;;;;;;;;5052335;28;20462;-59
2021/11/09 06:13:47;;;;;;;5.67;5.07;;;10.10;1.00;;;;;;5057448;28;20447;-58
2021/11/09 06:16:13;;;;;;;10.40;5.20;;;;;;;;;;5051470;28;20502;-58
2021/11/09 06:18:39;;;;;;;8.00;4.90;;;;;;;;;;5051308;28;20429;-59
2021/11/09 06:21:05;;;;;;;7.03;4.40;;;10.10;1.00;;;;;;5052920;28;20939;-59
2021/11/09 06:23:31;;;;;;;7.07;4.17;;;;;;;;;;5052518;28;20440;-59
2021/11/09 06:25:57;;;;;;;9.90;5.30;;;;;;;;;;5052078;28;20470;-58
2021/11/09 06:28:23;;;;;;;9.63;5.20;;;10.30;1.00;;;;;;5055983;28;20925;-58
2021/11/09 06:30:51;;;;;;;6.30;4.30;;;10.00;1.00;;;;;;5052088;28;20453;-59
2021/11/09 06:33:17;;;;;;;7.57;4.90;;;10.00;1.00;;;;;;5058099;28;20200;-59
2021/11/09 06:35:43;;;;;;;8.30;4.80;;;;;;;;;;5051423;28;20442;-59
2021/11/09 06:38:09;;;;;;;8.83;5.57;;;;;;;;;;5051968;28;20208;-59
2021/11/09 06:40:35;;;;;;;7.97;4.43;;;10.10;1.00;;;;;;5051137;28;20439;-58
2021/11/09 06:43:01;;;;;;;6.93;5.60;;;;;;;;;;5051405;28;20421;-59
2021/11/09 06:45:27;;;;;;;10.10;5.63;;;;;;;;;;5051685;28;20853;-58
2021/11/09 06:47:53;;;;;;;7.17;5.80;;;;;;;;;;5050076;28;20550;-59
2021/11/09 06:50:19;;;;;;;9.37;5.83;;;;;;;;;;5051851;28;20971;-58
2021/11/09 06:52:45;;;;;;;14.30;6.00;;;;;;;;;;5051667;28;20458;-58
2021/11/09 06:55:11;;;;;;;8.23;5.60;;;9.70;1.00;;;;;;5052106;28;20431;-58
2021/11/09 06:57:37;;;;;;;6.93;5.43;;;;;;;;;;5051856;28;20553;-59
2021/11/09 07:00:06;;;;;;;10.53;5.03;;;9.40;1.00;;;;;;5051201;28;20441;-57
2021/11/09 07:02:34;;;;;;;9.07;6.63;;;;;;;;;;5051490;28;20496;-58
2021/11/09 07:05:00;;;;;;;9.40;6.30;;;9.20;1.00;;;;;;5050878;28;20493;-58
2021/11/09 07:07:26;;;;;;;12.37;6.80;;;;;;;;;;5051138;28;20417;-59
2021/11/09 07:09:51;;;;;;;7.40;6.03;;;;;;;;;;5050694;28;20275;-58
2021/11/09 07:12:17;;;;;;;8.13;6.40;;;9.70;1.00;;;;;;5051395;28;20454;-59
2021/11/09 07:14:43;;;;;;;9.27;5.90;;;;;;;;;;5049822;28;20435;-58
2021/11/09 07:17:10;;;;;;;8.57;5.50;;;;;;;;;;5051081;28;20227;-58
2021/11/09 07:19:37;;;;;;;10.03;6.00;;;9.60;1.00;;;;;;5050842;28;20632;-59
2021/11/09 07:22:03;;;;;;;8.30;6.27;;;9.60;1.00;;;;;;5051063;28;20512;-59
2021/11/09 07:24:33;;;;;;;8.43;6.00;;;;;;;;;;5051742;28;20421;-58
2021/11/09 07:26:59;;;;;;;10.07;6.13;;;9.60;1.00;;;;;;5051442;28;20410;-59
2021/11/09 07:29:25;;;;;;;7.03;5.93;;;10.10;1.00;;;;;;5051430;28;20792;-58
2021/11/09 07:31:54;;;;;;;8.50;5.50;;;;;;;;;;5050829;28;20414;-59
2021/11/09 07:34:20;;;;;;;9.10;5.10;;;10.20;1.00;;;;;;5051622;28;20438;-59
2021/11/09 07:36:45;;;;;;;12.20;6.60;;;10.10;1.00;;;;;;5050675;28;20429;-58
2021/11/09 07:39:12;;;;;;;8.10;5.70;;;;;;;;;;5050845;28;20514;-59
2021/11/09 07:41:40;;;;;;;6.10;4.87;;;10.30;1.00;;;;;;5050983;28;20185;-59
2021/11/09 07:44:08;;;;;;;8.60;5.00;;;;;;;;;;5049226;28;20773;-57
2021/11/09 07:46:34;;;;;;;6.97;5.20;;;10.20;1.00;;;;;;5050612;28;20468;-58
2021/11/09 07:49:00;;;;;;;7.73;5.87;;;10.30;1.00;;;;;;5051144;28;20444;-59
2021/11/09 07:51:27;;;;;;;11.50;6.67;;;;;;;;;;5050067;28;20450;-59
2021/11/09 07:53:54;;;;;;;8.50;6.13;;;;;;;;;;5051120;28;20428;-58
2021/11/09 07:56:22;;;;;;;7.33;6.30;;;10.20;1.00;;;;;;5050488;28;20856;-58
2021/11/09 07:59:03;;;;;;;10.80;6.63;;;10.10;1.00;;;;;;5050704;28;20422;-58
2021/11/09 08:01:37;;;;;;;8.67;5.47;;;;;;;;;;5048741;28;20895;-59
2021/11/09 08:07:16;;;;;;;10.20;5.77;;;;;;;;;;5050316;28;20500;-61
2021/11/09 08:11:45;;;;;;;6.80;5.80;;;10.60;1.00;;;;;;5050348;28;20779;-60
2021/11/09 08:14:11;;;;;;;7.87;5.73;;;10.30;1.00;;;;;;5050818;28;20788;-59
2021/11/09 08:16:37;;;;;;;10.77;6.87;;;10.30;1.00;;;;;;5050676;28;20433;-60
2021/11/09 08:19:05;;;;;;;10.70;6.80;;;10.30;1.00;;;;;;5050899;28;20426;-59
2021/11/09 08:21:35;;;;;;;8.00;5.20;;;10.80;1.00;;;;;;5050548;28;20435;-58
2021/11/09 08:24:01;;;;;;;10.80;5.43;;;10.70;1.00;;;;;;5050554;28;20450;-59
2021/11/09 08:26:28;;;;;;;8.13;5.90;;;;;;;;;;5048942;28;20561;-59
2021/11/09 08:28:55;;;;;;;11.73;6.80;;;11.10;1.00;;;;;;5050609;28;20792;-59
2021/11/09 08:31:24;;;;;;;11.97;5.20;;;;;;;;;;5050658;28;20436;-58
2021/11/09 08:33:50;;;;;;;10.00;6.60;;;11.10;1.00;;;;;;5050163;28;20409;-58
2021/11/09 08:36:22;;;;;;;12.53;6.80;;;;;;;;;;5049154;28;20463;-59
2021/11/09 08:38:48;;;;;;;9.13;6.13;;;10.90;1.00;;;;;;5050390;28;20927;-58
2021/11/09 08:41:14;;;;;;;10.00;6.33;;;11.30;1.00;;;;;;5050680;28;20418;-58
2021/11/09 08:43:44;;;;;;;11.50;6.57;;;11.40;1.00;;;;;;5050387;28;20414;-59
2021/11/09 08:46:21;;;;;;;18.10;7.23;;;;;;;;;;5050331;28;20987;-58
2021/11/09 08:48:50;;;;;;;8.53;5.93;;;;;;;;;;5050374;28;20430;-58
2021/11/09 08:51:17;;;;;;;11.10;7.20;;;11.80;1.00;;;;;;5050389;28;20421;-58
2021/11/09 08:54:08;;;;;;;12.13;7.30;;;;;;;;;;5049978;28;20530;-58
2021/11/09 08:56:50;;;;;;;6.90;5.93;;;11.60;1.00;;;;;;5048721;28;20470;-59
2021/11/09 09:04:12;;;;;;;9.07;6.43;;;11.60;1.00;;;;;;5051021;28;21014;-59
2021/11/09 09:04:50;;;;;;;13.00;7.23;;;11.90;1.00;;;;;;5054021;28;20436;-60
2021/11/09 09:07:16;;;;;;;13.57;6.03;;;11.70;1.00;;;;;;5054391;28;20502;-58
2021/11/09 09:09:42;;;;;;;13.00;6.73;;;;;;;;;;5054080;28;20438;-59
2021/11/09 09:12:08;;;;;;;8.47;6.50;;;11.80;1.00;;;;;;5053549;28;20204;-59
2021/11/09 09:14:34;;;;;;;11.00;7.47;;;;;;;;;;5061653;28;20403;-58
2021/11/09 09:17:02;;;;;;;11.57;6.73;;;;;;;;;;5073992;28;22519;-59
2021/11/09 09:19:39;;;;;;;9.57;7.27;;;12.10;1.00;;;;;;5074538;28;20417;-59
2021/11/09 09:22:14;;;;;;;13.57;6.70;;;;;;;;;;5074596;28;20462;-60
2021/11/09 09:30:17;;;;;;;10.23;6.60;;;12.40;1.00;;;;;;5074092;28;20445;-60
2021/11/09 09:57:48;;;;;;;9.93;6.10;;;12.90;1.00;;;;;;5071084;28;20484;-59
2021/11/09 10:00:15;;;;;;;6.70;6.00;;;;;;;;;;5072122;28;20427;-59
2021/11/09 10:02:50;;;;;;;11.80;7.10;;;12.90;1.00;;;;;;5067220;28;20429;-60
2021/11/09 10:05:16;;;;;;;8.20;5.60;;;13.00;1.00;;;;;;5053138;28;20487;-59
2021/11/09 10:07:50;;;;;;;7.17;5.37;;;13.30;1.00;;;;;;5053350;28;20417;-58
2021/11/09 10:10:16;;;;;;;9.10;5.07;;;;;;;;;;5053100;28;20805;-59
2021/11/09 10:12:44;;;;;;;7.00;5.07;;;12.90;1.00;;;;;;5053261;28;20501;-59
2021/11/09 10:15:10;;;;;;;9.67;5.20;;;12.90;1.00;;;;;;5052230;28;20428;-59
2021/11/09 10:17:37;;;;;;;8.93;5.00;;;13.00;1.00;;;;;;5053119;28;20459;-58
2021/11/09 10:20:12;;;;;;;10.00;5.60;;;13.10;1.00;;;;;;5051762;28;20184;-58
2021/11/09 10:22:40;;;;;;;8.10;5.40;;;13.10;1.00;;;;;;5053124;28;20413;-60
2021/11/09 10:25:12;;;;;;;13.63;5.77;;;13.30;1.00;;;;;;5052678;28;20962;-59
2021/11/09 10:27:40;;;;;;;7.00;5.30;;;13.20;1.00;;;;;;5053110;28;20402;-59
2021/11/09 10:30:08;;;;;;;10.47;6.07;;;13.50;1.00;;;;;;5052914;28;20414;-59
2021/11/09 10:32:35;;;;;;;11.27;5.63;;;;;;;;;;5052180;28;20429;-59
2021/11/09 10:35:03;;;;;;;8.27;5.63;;;13.60;1.00;;;;;;5053025;28;20485;-58
2021/11/09 10:37:32;;;;;;;9.00;6.80;;;13.70;1.00;;;;;;5052277;28;20463;-58
2021/11/09 10:40:05;;;;;;;10.73;6.60;;;13.00;1.00;;;;;;5051293;28;20446;-60
2021/11/09 10:42:33;;;;;;;10.40;5.93;;;13.60;1.00;;;;;;5052284;28;20915;-60
2021/11/09 10:45:09;;;;;;;9.70;6.70;;;13.30;1.00;;;;;;5052507;28;20435;-58
2021/11/09 10:47:35;;;;;;;8.40;6.33;;;13.50;1.00;;;;;;5052401;28;20432;-59
2021/11/09 10:50:09;;;;;;;7.37;5.93;;;13.70;1.00;;;;;;5052270;28;20421;-59
2021/11/09 10:52:38;;;;;;;9.40;6.03;;;13.70;1.00;;;;;;5052205;28;20481;-57
2021/11/09 10:57:39;;;;;;;8.60;5.70;;;;;;;;;;5051746;28;20463;-59
2021/11/09 11:00:17;;;;;;;10.43;6.13;;;13.60;1.00;;;;;;5052190;28;20955;-58
2021/11/09 11:05:27;;;;;;;8.30;5.70;;;13.70;1.00;;;;;;5051583;28;20461;-60
2021/11/09 11:07:58;;;;;;;8.03;4.70;;;13.80;1.00;;;;;;5051974;28;20435;-58
2021/11/09 11:10:28;;;;;;;7.13;5.03;;;14.00;1.00;;;;;;5051231;28;20184;-59
2021/11/09 11:13:21;;;;;;;8.47;4.80;;;14.00;1.00;;;;;;5051657;28;20434;-58
2021/11/09 11:16:07;;;;;;;12.23;5.20;;;13.90;1.00;;;;;;5051789;28;20431;-59
2021/11/09 11:18:40;;;;;;;5.83;4.23;;;13.80;1.00;;;;;;5051925;28;21000;-60
2021/11/09 11:21:09;;;;;;;10.17;5.33;;;14.00;1.00;;;;;;5051557;28;20398;-59
2021/11/09 11:23:36;;;;;;;6.13;4.13;;;;;;;;;;5051546;28;20401;-58
2021/11/09 11:26:05;;;;;;;9.77;4.43;;;14.20;1.00;;;;;;5050492;28;20506;-58
2021/11/09 11:28:31;;;;;;;6.00;4.97;;;;;;;;;;5051193;28;20401;-59
2021/11/09 11:30:57;;;;;;;5.80;4.07;;;;;;;;;;5051588;28;20865;-60
2021/11/09 11:33:24;;;;;;;7.30;5.00;;;;;;;;;;5050820;28;20648;-60
2021/11/09 11:35:50;;;;;;;8.77;4.63;;;14.10;1.00;;;;;;5051400;28;20431;-59
2021/11/09 11:38:18;;;;;;;9.33;4.37;;;14.40;1.00;;;;;;5051327;28;20413;-60
2021/11/09 11:40:44;;;;;;;7.40;4.40;;;;;;;;;;5051279;28;20899;-58
2021/11/09 11:43:11;;;;;;;6.80;4.33;;;;;;;;;;5051210;28;20497;-58
2021/11/09 11:45:48;;;;;;;4.60;4.20;;;;;;;;;;5050793;28;20554;-59
2021/11/09 11:48:15;;;;;;;4.80;3.80;;;14.20;1.00;;;;;;5051219;28;20504;-58
2021/11/09 11:50:42;;;;;;;5.83;3.60;;;14.20;1.00;;;;;;5049612;28;20440;-59
2021/11/09 11:53:08;;;;;;;5.67;3.10;;;14.50;1.00;;;;;;5051310;28;20507;-58
2021/11/09 11:55:35;;;;;;;5.83;3.10;;;14.40;1.00;;;;;;5049414;28;20405;-58
2021/11/09 11:58:04;;;;;;;5.00;3.70;;;14.10;1.00;;;;;;5050904;28;20441;-58
2021/11/09 12:00:38;;;;;;;5.27;3.37;;;14.10;1.00;;;;;;5050927;28;20439;-59
2021/11/09 12:03:17;;;;;;;4.50;3.20;;;13.90;1.00;;;;;;5050713;28;20944;-58
2021/11/09 12:05:45;;;;;;;3.87;2.90;;;14.20;1.00;;;;;;5049938;28;20458;-58
2021/11/09 12:08:14;;;;;;;5.37;3.30;;;14.20;1.00;;;;;;5051138;28;20462;-59
2021/11/09 12:10:53;;;;;;;5.23;3.83;;;14.30;1.00;;;;;;5050447;28;20436;-57
2021/11/09 12:13:22;;;;;;;6.00;4.00;;;;;;;;;;5051112;28;20528;-60
2021/11/09 12:15:52;;;;;;;4.20;3.57;;;14.20;1.00;;;;;;5050590;28;20761;-58
2021/11/09 12:18:34;;;;;;;4.20;3.27;;;14.40;1.00;;;;;;5051038;28;20767;-59
2021/11/09 12:21:18;;;;;;;4.70;2.90;;;14.50;1.00;;;;;;5050567;28;20485;-59
2021/11/09 12:24:17;;;;;;;6.37;3.10;;;14.50;1.00;;;;;;5050139;28;20492;-58
2021/11/09 12:26:55;;;;;;;6.27;3.70;;;14.50;1.00;;;;;;5050424;28;20441;-57
2021/11/09 12:29:36;;;;;;;7.07;3.70;;;14.40;1.00;;;;;;5050633;28;20938;-58
2021/11/09 12:32:20;;;;;;;6.90;3.80;;;14.50;1.00;;;;;;5049713;28;20944;-58
2021/11/09 12:35:03;;;;;;;11.10;4.27;;;14.40;1.00;;;;;;5050379;28;20493;-60
2021/11/09 12:37:40;;;;;;;9.67;4.63;;;;;;;;;;5050236;28;20842;-59
2021/11/09 12:40:29;;;;;;;6.47;3.77;;;14.30;1.00;;;;;;5050533;28;20401;-58
2021/11/09 12:43:15;;;;;;;8.20;4.47;;;14.40;1.00;;;;;;5050361;28;20521;-59
2021/11/09 12:45:44;;;;;;;6.63;3.63;;;14.40;1.00;;;;;;5050257;28;20459;-58
2021/11/09 12:48:14;;;;;;;5.57;4.73;;;14.40;1.00;;;;;;5050186;28;20443;-58
2021/11/09 12:50:53;;;;;;;4.43;3.10;;;14.40;1.00;;;;;;5050388;28;20481;-59
2021/11/09 12:53:22;;;;;;;3.70;3.40;;;14.40;1.00;;;;;;5062950;28;20753;-58
2021/11/09 12:56:00;;;;;;;8.30;4.20;;;14.40;1.00;;;;;;5070002;28;20466;-58
2021/11/09 12:58:27;;;;;;;5.10;4.00;;;14.30;1.00;;;;;;5070169;28;20411;-58
2021/11/09 13:01:17;;;;;;;6.17;3.63;;;14.60;1.00;;;;;;5055680;28;20439;-59
2021/11/09 13:04:06;;;;;;;6.70;3.80;;;;;;;;;;5050114;28;20450;-58
2021/11/09 13:06:50;;;;;;;4.23;3.43;;;14.30;1.00;;;;;;5048772;28;20439;-59
2021/11/09 13:09:22;;;;;;;5.10;3.67;;;14.20;1.00;;;;;;5049868;28;20550;-58
2021/11/09 13:11:57;;;;;;;8.63;4.40;;;14.10;1.00;;;;;;5048418;28;20430;-59
2021/11/09 13:14:31;;;;;;;5.00;3.20;;;14.20;1.00;;;;;;5050275;28;20762;-57
2021/11/09 13:16:57;;;;;;;6.20;3.60;;;;;;;;;;5048382;28;20524;-58
2021/11/09 13:19:37;;;;;;;5.10;3.77;;;14.20;1.00;;;;;;5050038;28;20799;-58
2021/11/09 13:22:08;;;;;;;3.20;2.90;;;14.30;1.00;;;;;;5049612;28;20545;-60
2021/11/09 13:24:38;;;;;;;6.73;3.47;;;14.40;1.00;;;;;;5053629;28;20450;-59
2021/11/09 13:27:07;;;;;;;10.63;3.87;;;14.20;1.00;;;;;;5068484;28;20912;-60
2021/11/09 13:29:42;;;;;;;5.10;3.17;;;14.20;1.00;;;;;;5069912;28;20439;-58
2021/11/09 13:32:09;;;;;;;4.40;3.13;;;14.10;1.00;;;;;;5053150;28;20445;-60
2021/11/09 13:34:35;;;;;;;5.37;2.57;;;14.00;1.00;;;;;;5048200;28;20417;-59
2021/11/09 13:37:01;;;;;;;5.37;3.60;;;13.90;1.00;;;;;;5049219;28;20826;-58
2021/11/09 13:39:26;;;;;;;5.00;2.83;;;14.20;1.00;;;;;;5049701;28;20203;-59
2021/11/09 13:41:52;;;;;;;5.77;3.10;;;14.00;1.00;;;;;;5050037;28;20903;-60
2021/11/09 13:44:18;;;;;;;4.37;3.10;;;;;;;;;;5048129;28;20226;-59
2021/11/09 13:46:45;;;;;;;3.77;2.50;;;14.10;1.00;;;;;;5049559;28;20244;-59
2021/11/09 13:49:13;;;;;;;8.43;2.73;;;14.20;1.00;;;;;;5049995;28;20426;-60
2021/11/09 13:51:49;;;;;;;3.47;2.30;;;14.20;1.00;;;;;;5053466;28;20469;-59
2021/11/09 13:54:25;;;;;;;4.20;2.40;;;;;;;;;;5053272;28;20427;-58
2021/11/09 13:56:53;;;;;;;3.03;2.27;;;13.90;1.00;;;;;;5053421;28;20502;-59
2021/11/09 13:59:35;;;;;;;4.00;2.20;;;13.90;1.00;;;;;;5052762;28;20466;-59
2021/11/09 14:02:11;;;;;;;5.30;2.50;;;14.00;1.00;;;;;;5053264;28;20414;-59
2021/11/09 14:07:34;;;;;;;4.63;2.70;;;13.80;1.00;;;;;;5052458;28;20450;-61
2021/11/09 14:15:49;;;;;;;4.20;2.23;;;13.50;1.00;;;;;;5052800;28;20441;-58
2021/11/09 14:18:22;;;;;;;4.87;2.77;;;13.70;1.00;;;;;;5052689;28;20442;-58
2021/11/09 14:20:56;;;;;;;3.27;2.30;;;13.50;1.00;;;;;;5052492;28;20468;-58
2021/11/09 14:23:31;;;;;;;4.10;2.80;;;13.20;1.00;;;;;;5052541;28;20405;-60
2021/11/09 14:25:59;;;;;;;5.63;3.03;;;;;;;;;;5053155;28;20405;-59
2021/11/09 14:28:36;;;;;;;4.80;3.20;;;13.50;1.00;;;;;;5052634;28;20426;-59
2021/11/09 14:31:26;;;;;;;5.10;3.63;;;13.50;1.00;;;;;;5053073;28;20442;-59
2021/11/09 14:34:10;;;;;;;4.37;3.27;;;13.40;1.00;;;;;;5052147;28;20428;-58
2021/11/09 14:36:36;;;;;;;4.43;4.00;;;13.70;1.00;;;;;;5052170;28;20490;-58
2021/11/09 14:39:16;;;;;;;3.90;3.60;;;13.40;1.00;;;;;;5052541;28;20402;-59
2021/11/09 14:47:43;;;;;;;5.60;4.23;;;13.20;1.00;;;;;;5052751;28;20492;-59
2021/11/09 14:50:49;;;;;;;7.17;5.00;;;13.20;1.00;;;;;;5052549;28;20454;-59
2021/11/09 14:53:19;;;;;;;6.87;5.10;;;13.10;1.00;;;;;;5052250;28;20982;-57
2021/11/09 14:55:58;;;;;;;6.50;5.53;;;12.90;1.00;;;;;;5052041;28;20430;-58
2021/11/09 14:58:29;;;;;;;6.17;4.70;;;12.90;1.00;;;;;;5052246;28;20429;-58
2021/11/09 15:01:01;;;;;;;9.03;5.87;;;;;;;;;;5050427;28;20919;-59
2021/11/09 15:03:28;;;;;;;5.27;4.40;;;;;;;;;;5051687;28;20443;-59
2021/11/09 15:05:56;;;;;;;8.13;4.10;;;12.30;1.00;;;;;;5051524;28;20414;-58
2021/11/09 15:08:35;;;;;;;4.80;4.33;;;;;;;;;;5052107;28;20447;-58
2021/11/09 15:24:58;;;;;;;5.37;3.60;;;;;;;;;;5052657;28;20432;-59
2021/11/09 15:25:12;;;;;;;3.43;3.00;;;;;;;;;;5051563;28;20469;-58
2021/11/09 15:27:58;;;;;;;5.57;3.80;;;;;;;;;;5050418;28;20446;-58
2021/11/09 15:30:33;;;;;;;4.00;3.60;;;;;;;;;;5047616;28;20905;-59
2021/11/09 15:33:00;;;;;;;3.70;3.23;;;;;;;;;;5034892;28;20808;-58
2021/11/09 15:36:07;;;;;;;4.73;3.80;;;11.20;1.00;;;;;;5051264;28;20447;-59
2021/11/09 15:38:12;;;;;;;5.30;3.90;;;;;;;;;;5050573;28;20558;-59
2021/11/09 15:40:38;;;;;;;4.93;4.43;;;11.40;1.00;;;;;;5051831;28;20896;-58
2021/11/09 15:43:04;;;;;;;4.50;4.10;;;;;;;;;;5051452;28;20482;-59
2021/11/09 15:45:30;;;;;;;10.70;4.23;;;11.40;1.00;;;;;;5050278;28;20486;-58
2021/11/09 15:47:56;;;;;;;5.00;4.50;;;11.30;1.00;;;;;;5051154;28;20439;-59
2021/11/09 15:50:21;;;;;;;10.93;6.00;;;11.00;1.00;;;;;;5049913;28;20238;-60
2021/11/09 15:52:47;;;;;;;5.80;4.80;;;;;;;;;;5050933;28;20181;-59
2021/11/09 15:55:13;;;;;;;8.63;6.00;;;;;;;;;;5051389;28;20263;-59
2021/11/09 15:57:40;;;;;;;9.63;5.70;;;;;;;;;;5051232;28;20880;-60
2021/11/09 16:00:09;;;;;;;6.63;5.80;;;11.20;1.00;;;;;;5051125;28;20947;-60
2021/11/09 16:02:36;;;;;;;8.53;6.37;;;;;;;;;;5050960;28;20871;-59
2021/11/09 16:05:04;;;;;;;7.07;6.47;;;;;;;;;;5050626;28;20434;-60
2021/11/09 16:07:30;;;;;;;8.50;6.07;;;10.80;1.00;;;;;;5050470;28;20439;-58